METAR Data
IDs: Format: Raw Decoded Include TAF

Data at: 1602 UTC 18 Aug 2019

PAHP 181356Z AUTO 05008KT 10SM CLR 11/09 A3045 RMK AO2 SLP349 T01060089 PNO $
PAHP 181256Z AUTO 04010KT 10SM CLR 12/09 A3047 RMK AO2 SLP357 T01170089 PNO $
PAHP 181056Z AUTO 03010KT 10SM CLR 11/09 A3049 RMK AO2 SLP364 T01110089 PNO $
PAHP 180956Z AUTO 03007KT 10SM CLR 11/08 A3050 RMK AO2 SLP366 T01110083 PNO $
PAHP 180656Z AUTO 04009KT 10SM CLR 13/09 A3048 RMK AO2 SLP360 T01330094 PNO $
PAHP 180456Z AUTO 03012KT 10SM CLR 16/08 A3050 RMK AO2 SLP366 T01560083 PNO $
PAHP 180356Z AUTO 02012KT 10SM CLR 17/11 A3052 RMK AO2 SLP372 T01670106 PNO $
PAHP 180156Z AUTO 36011KT 10SM CLR 17/11 A3055 RMK AO2 SLP384 T01670111 PNO $
PAHP 180056Z AUTO 03013KT 10SM CLR 17/10 A3056 RMK AO2 SLP387 T01670100 PNO $
PAHP 172356Z AUTO 03013G19KT 10SM CLR 17/10 A3055 RMK AO2 PRESFR SLP385 6//// T01670100 10167 20122 58013 PNO $
PAHP 172256Z AUTO 05013G16KT 10SM CLR 16/09 A3058 RMK AO2 SLP395 T01560094 PNO $
PAHP 172156Z AUTO 05008KT 10SM CLR 15/09 A3060 RMK AO2 SLP399 T01500089 PNO $
PAHP 172056Z AUTO 06010KT 10SM CLR 14/09 A3059 RMK AO2 SLP397 6//// T01440094 56005 PNO $
PAHP 171856Z AUTO 07010KT 10SM CLR 13/09 A3060 RMK AO2 SLP401 T01330089 PNO $
PAHP 171756Z AUTO 04009KT 10SM CLR 12/09 A3061 RMK AO2 SLP403 6//// T01220094 10122 20083 51018 PNO $
PAHP 171656Z AUTO 06007KT 10SM CLR 11/09 A3061 RMK AO2 SLP403 T01060089 PNO $
PAHP 171556Z AUTO 04006KT 10SM CLR 09/08 A3058 RMK AO2 SLP395 T00890078 PNO $
PAHP 171356Z AUTO 06006KT 10SM CLR 09/08 A3056 RMK AO2 SLP385 T00890078 PNO $
PAHP 171256Z AUTO 07007KT 10SM CLR 10/09 A3055 RMK AO2 SLP385 T01000089 PNO $
PAHP 171147Z AUTO 09003KT 10SM SCT022 09/09 A3054 RMK AO2 PNO $
PAHP 171056Z AUTO 05004KT 10SM OVC022 10/09 A3055 RMK AO2 SLP382 T01000094 PNO $
PAHP 171046Z AUTO 06004KT 10SM BKN022 10/09 A3054 RMK AO2 PNO $
PAHP 170956Z AUTO 05007KT 10SM SCT019 OVC080 11/09 A3052 RMK AO2 SLP374 T01110094 PNO $
PAHP 170856Z AUTO 05008KT 10SM OVC015 12/11 A3052 RMK AO2 SLP372 6//// T01220111 401390122 51013 PNO $
PAHP 170756Z AUTO 04005KT 10SM OVC017 13/12 A3051 RMK AO2 SLP369 T01280122 PNO $
PAHP 170705Z AUTO 05006KT 10SM BKN007 OVC014 13/12 A3049 RMK AO2 CIG 005V011 PNO $
PAHP 170656Z AUTO 06006KT 10SM SCT007 OVC014 13/12 A3049 RMK AO2 RAE16 SLP363 T01280122 PNO $
PAHP 170643Z AUTO 05005KT 10SM FEW007 OVC016 13/13 A3049 RMK AO2 RAE16 PNO $
PAHP 170631Z AUTO 04005KT 10SM OVC016 13/13 A3049 RMK AO2 RAE16 PNO $
PAHP 170556Z AUTO 03005KT 10SM -RA OVC009 13/13 A3048 RMK AO2 RAB12 CIG 006V014 SLP359 6//// T01330128 10139 20128 58007 PNO $
PAHP 170456Z AUTO 32005KT 10SM BKN007 BKN032 OVC042 13/12 A3048 RMK AO2 CIG 005V009 SLP359 T01330122 PNO $